sensor_id;sensor_type;location;lat;lon;timestamp;pressure;altitude;pressure_sealevel;temperature;humidity
58473;BME280;44775;51.564;5.460;2023-07-28T00:00:06;100245.25;;;16.39;100.00
58473;BME280;44775;51.564;5.460;2023-07-28T00:02:31;100242.34;;;16.41;100.00
58473;BME280;44775;51.564;5.460;2023-07-28T00:04:56;100241.53;;;16.40;100.00
58473;BME280;44775;51.564;5.460;2023-07-28T00:07:22;100240.47;;;16.41;100.00
58473;BME280;44775;51.564;5.460;2023-07-28T00:09:47;100236.34;;;16.39;100.00
58473;BME280;44775;51.564;5.460;2023-07-28T00:12:12;100235.28;;;16.40;100.00
58473;BME280;44775;51.564;5.460;2023-07-28T00:14:38;100235.28;;;16.40;100.00
58473;BME280;44775;51.564;5.460;2023-07-28T00:17:03;100232.97;;;16.43;100.00
58473;BME280;44775;51.564;5.460;2023-07-28T00:19:28;100229.88;;;16.40;100.00
58473;BME280;44775;51.564;5.460;2023-07-28T00:21:54;100236.13;;;16.40;100.00
58473;BME280;44775;51.564;5.460;2023-07-28T00:24:21;100235.28;;;16.40;100.00
58473;BME280;44775;51.564;5.460;2023-07-28T00:26:46;100234.25;;;16.41;100.00
58473;BME280;44775;51.564;5.460;2023-07-28T00:29:12;100228.69;;;16.36;100.00
58473;BME280;44775;51.564;5.460;2023-07-28T00:31:37;100229.88;;;16.40;100.00
58473;BME280;44775;51.564;5.460;2023-07-28T00:34:03;100230.50;;;16.42;100.00
58473;BME280;44775;51.564;5.460;2023-07-28T00:36:28;100221.97;;;16.45;100.00
58473;BME280;44775;51.564;5.460;2023-07-28T00:38:54;100219.72;;;16.42;100.00
58473;BME280;44775;51.564;5.460;2023-07-28T00:41:19;100224.28;;;16.41;100.00
58473;BME280;44775;51.564;5.460;2023-07-28T00:43:44;100215.75;;;16.44;100.00
58473;BME280;44775;51.564;5.460;2023-07-28T00:46:10;100218.44;;;16.44;100.00
58473;BME280;44775;51.564;5.460;2023-07-28T00:48:35;100223.03;;;16.44;100.00
58473;BME280;44775;51.564;5.460;2023-07-28T00:51:03;100218.44;;;16.44;100.00
58473;BME280;44775;51.564;5.460;2023-07-28T00:53:29;100210.75;;;16.48;100.00
58473;BME280;44775;51.564;5.460;2023-07-28T00:55:55;100213.50;;;16.41;100.00
58473;BME280;44775;51.564;5.460;2023-07-28T00:58:21;100220.34;;;16.44;100.00
58473;BME280;44775;51.564;5.460;2023-07-28T01:00:47;100221.53;;;16.48;100.00
58473;BME280;44775;51.564;5.460;2023-07-28T01:03:13;100218.66;;;16.43;100.00
58473;BME280;44775;51.564;5.460;2023-07-28T01:10:57;100235.22;;;16.46;100.00
58473;BME280;44775;51.564;5.460;2023-07-28T01:13:23;100233.81;;;16.44;100.00
58473;BME280;44775;51.564;5.460;2023-07-28T01:15:48;100240.59;;;16.46;100.00
58473;BME280;44775;51.564;5.460;2023-07-28T01:18:14;100235.00;;;16.48;100.00
58473;BME280;44775;51.564;5.460;2023-07-28T01:20:41;100241.47;;;16.47;100.00
58473;BME280;44775;51.564;5.460;2023-07-28T01:23:18;100240.59;;;16.46;100.00
58473;BME280;44775;51.564;5.460;2023-07-28T01:28:17;100238.53;;;16.48;100.00
58473;BME280;44775;51.564;5.460;2023-07-28T01:30:42;100241.47;;;16.47;100.00
58473;BME280;44775;51.564;5.460;2023-07-28T01:33:08;100235.22;;;16.46;100.00
58473;BME280;44775;51.564;5.460;2023-07-28T01:35:36;100244.75;;;16.49;100.00
58473;BME280;44775;51.564;5.460;2023-07-28T01:38:02;100249.09;;;16.50;100.00
58473;BME280;44775;51.564;5.460;2023-07-28T01:40:27;100242.28;;;16.47;100.00
58473;BME280;44775;51.564;5.460;2023-07-28T01:42:52;100248.50;;;16.48;100.00
58473;BME280;44775;51.564;5.460;2023-07-28T01:45:18;100236.88;;;16.47;100.00
58473;BME280;44775;51.564;5.460;2023-07-28T01:47:43;100241.47;;;16.47;100.00
58473;BME280;44775;51.564;5.460;2023-07-28T01:50:08;100246.63;;;16.48;100.00
58473;BME280;44775;51.564;5.460;2023-07-28T01:52:34;100247.25;;;16.50;100.00
58473;BME280;44775;51.564;5.460;2023-07-28T01:54:59;100253.22;;;16.52;100.00
58473;BME280;44775;51.564;5.460;2023-07-28T01:57:26;100245.94;;;16.53;100.00
58473;BME280;44775;51.564;5.460;2023-07-28T01:59:53;100245.56;;;16.49;100.00
58473;BME280;44775;51.564;5.460;2023-07-28T02:02:19;100241.84;;;16.50;100.00
58473;BME280;44775;51.564;5.460;2023-07-28T02:04:44;100254.47;;;16.50;100.00
58473;BME280;44775;51.564;5.460;2023-07-28T02:07:09;100244.31;;;16.52;100.00
58473;BME280;44775;51.564;5.460;2023-07-28T02:09:35;100244.06;;;16.53;100.00
58473;BME280;44775;51.564;5.460;2023-07-28T02:12:00;100237.09;;;16.46;100.00
58473;BME280;44775;51.564;5.460;2023-07-28T02:14:25;100244.31;;;16.52;100.00
58473;BME280;44775;51.564;5.460;2023-07-28T02:16:51;100238.91;;;16.52;100.00
58473;BME280;44775;51.564;5.460;2023-07-28T02:19:16;100235.41;;;16.51;100.00
58473;BME280;44775;51.564;5.460;2023-07-28T02:21:41;100230.81;;;16.52;100.00
58473;BME280;44775;51.564;5.460;2023-07-28T02:24:07;100231.44;;;16.54;100.00
58473;BME280;44775;51.564;5.460;2023-07-28T02:26:32;100236.44;;;16.50;100.00
58473;BME280;44775;51.564;5.460;2023-07-28T02:28:57;100229.75;;;16.53;100.00
58473;BME280;44775;51.564;5.460;2023-07-28T02:31:22;100236.22;;;16.52;100.00
58473;BME280;44775;51.564;5.460;2023-07-28T02:33:48;100245.13;;;16.52;100.00
58473;BME280;44775;51.564;5.460;2023-07-28T02:36:13;100242.66;;;16.51;100.00
58473;BME280;44775;51.564;5.460;2023-07-28T02:38:38;100247.63;;;16.54;100.00
58473;BME280;44775;51.564;5.460;2023-07-28T02:41:04;100240.78;;;16.51;100.00
58473;BME280;44775;51.564;5.460;2023-07-28T02:43:29;100240.78;;;16.51;100.00
58473;BME280;44775;51.564;5.460;2023-07-28T02:45:56;100246.75;;;16.53;100.00
58473;BME280;44775;51.564;5.460;2023-07-28T02:48:21;100244.91;;;16.54;100.00
58473;BME280;44775;51.564;5.460;2023-07-28T02:50:51;100252.16;;;16.53;100.00
58473;BME280;44775;51.564;5.460;2023-07-28T02:53:17;100254.84;;;16.53;100.00
58473;BME280;44775;51.564;5.460;2023-07-28T02:55:46;100257.56;;;16.53;100.00
58473;BME280;44775;51.564;5.460;2023-07-28T02:58:13;100253.44;;;16.51;100.00
58473;BME280;44775;51.564;5.460;2023-07-28T03:00:39;100257.56;;;16.53;100.00
58473;BME280;44775;51.564;5.460;2023-07-28T03:03:05;100258.59;;;16.52;100.00
58473;BME280;44775;51.564;5.460;2023-07-28T03:05:31;100255.53;;;16.49;100.00
58473;BME280;44775;51.564;5.460;2023-07-28T03:07:57;100263.81;;;16.54;100.00
58473;BME280;44775;51.564;5.460;2023-07-28T03:10:22;100268.13;;;16.55;100.00
58473;BME280;44775;51.564;5.460;2023-07-28T03:12:47;100265.88;;;16.52;100.00
58473;BME280;44775;51.564;5.460;2023-07-28T03:15:13;100264.81;;;16.53;100.00
58473;BME280;44775;51.564;5.460;2023-07-28T03:17:38;100263.19;;;16.52;100.00
58473;BME280;44775;51.564;5.460;2023-07-28T03:20:04;100266.69;;;16.52;100.00
58473;BME280;44775;51.564;5.460;2023-07-28T03:22:29;100263.81;;;16.54;100.00
58473;BME280;44775;51.564;5.460;2023-07-28T03:24:56;100276.22;;;16.55;100.00
58473;BME280;44775;51.564;5.460;2023-07-28T03:27:21;100271.88;;;16.54;100.00
58473;BME280;44775;51.564;5.460;2023-07-28T03:29:46;100272.91;;;16.53;100.00
58473;BME280;44775;51.564;5.460;2023-07-28T03:32:12;100271.28;;;16.52;100.00
58473;BME280;44775;51.564;5.460;2023-07-28T03:34:37;100268.13;;;16.55;100.00
58473;BME280;44775;51.564;5.460;2023-07-28T03:37:03;100269.19;;;16.54;100.00
58473;BME280;44775;51.564;5.460;2023-07-28T03:39:28;100273.28;;;16.57;100.00
58473;BME280;44775;51.564;5.460;2023-07-28T03:41:54;100271.66;;;16.56;100.00
58473;BME280;44775;51.564;5.460;2023-07-28T03:44:20;100276.00;;;16.57;100.00
58473;BME280;44775;51.564;5.460;2023-07-28T03:46:45;100280.75;;;16.61;100.00
58473;BME280;44775;51.564;5.460;2023-07-28T03:49:11;100282.25;;;16.57;100.00
58473;BME280;44775;51.564;5.460;2023-07-28T03:51:36;100288.66;;;16.56;100.00
58473;BME280;44775;51.564;5.460;2023-07-28T03:54:01;100293.22;;;16.56;100.00
58473;BME280;44775;51.564;5.460;2023-07-28T03:56:27;100291.97;;;16.58;100.00
58473;BME280;44775;51.564;5.460;2023-07-28T03:58:53;100301.31;;;16.56;100.00
58473;BME280;44775;51.564;5.460;2023-07-28T04:01:19;100286.19;;;16.55;100.00
58473;BME280;44775;51.564;5.460;2023-07-28T04:03:46;100285.59;;;16.52;100.00
58473;BME280;44775;51.564;5.460;2023-07-28T04:06:12;100286.41;;;16.53;100.00
58473;BME280;44775;51.564;5.460;2023-07-28T04:08:37;100291.34;;;16.56;100.00
58473;BME280;44775;51.564;5.460;2023-07-28T04:11:02;100300.50;;;16.55;100.00
58473;BME280;44775;51.564;5.460;2023-07-28T04:13:28;100290.34;;;16.57;100.00
58473;BME280;44775;51.564;5.460;2023-07-28T04:15:53;100308.16;;;16.58;100.00
58473;BME280;44775;51.564;5.460;2023-07-28T04:18:19;100291.34;;;16.56;100.00
58473;BME280;44775;51.564;5.460;2023-07-28T04:20:45;100299.25;;;16.58;100.00
58473;BME280;44775;51.564;5.460;2023-07-28T04:23:11;100294.06;;;16.56;100.00
58473;BME280;44775;51.564;5.460;2023-07-28T04:25:36;100295.09;;;16.55;100.00
58473;BME280;44775;51.564;5.460;2023-07-28T04:28:01;100294.66;;;16.58;100.00
58473;BME280;44775;51.564;5.460;2023-07-28T04:30:27;100288.28;;;16.52;100.00
58473;BME280;44775;51.564;5.460;2023-07-28T04:32:52;100285.81;;;16.51;100.00
58473;BME280;44775;51.564;5.460;2023-07-28T04:35:17;100291.78;;;16.53;100.00
58473;BME280;44775;51.564;5.460;2023-07-28T04:37:43;100292.19;;;16.57;100.00
58473;BME280;44775;51.564;5.460;2023-07-28T04:40:08;100289.47;;;16.57;100.00
58473;BME280;44775;51.564;5.460;2023-07-28T04:42:34;100287.16;;;16.60;100.00
58473;BME280;44775;51.564;5.460;2023-07-28T04:44:59;100291.53;;;16.61;100.00
58473;BME280;44775;51.564;5.460;2023-07-28T04:47:25;100284.69;;;16.59;100.00
58473;BME280;44775;51.564;5.460;2023-07-28T04:49:50;100277.00;;;16.62;100.00
58473;BME280;44775;51.564;5.460;2023-07-28T04:52:15;100287.78;;;16.62;100.00
58473;BME280;44775;51.564;5.460;2023-07-28T04:54:41;100279.06;;;16.60;100.00
58473;BME280;44775;51.564;5.460;2023-07-28T04:57:06;100288.22;;;16.59;100.00
58473;BME280;44775;51.564;5.460;2023-07-28T04:59:31;100292.72;;;16.65;100.00
58473;BME280;44775;51.564;5.460;2023-07-28T05:01:57;100294.53;;;16.71;100.00
58473;BME280;44775;51.564;5.460;2023-07-28T05:04:22;100297.78;;;16.80;100.00
58473;BME280;44775;51.564;5.460;2023-07-28T05:06:48;100298.63;;;16.81;100.00
58473;BME280;44775;51.564;5.460;2023-07-28T05:09:13;100292.94;;;16.89;100.00
58473;BME280;44775;51.564;5.460;2023-07-28T05:11:38;100298.09;;;16.90;100.00
58473;BME280;44775;51.564;5.460;2023-07-28T05:14:04;100296.03;;;16.92;100.00
58473;BME280;44775;51.564;5.460;2023-07-28T05:16:31;100306.75;;;16.99;100.00
58473;BME280;44775;51.564;5.460;2023-07-28T05:18:57;100311.31;;;16.98;100.00
58473;BME280;44775;51.564;5.460;2023-07-28T05:21:22;100325.19;;;17.02;100.00
58473;BME280;44775;51.564;5.460;2023-07-28T05:23:47;100322.50;;;17.02;100.00
58473;BME280;44775;51.564;5.460;2023-07-28T05:26:13;100322.50;;;17.02;100.00
58473;BME280;44775;51.564;5.460;2023-07-28T05:28:38;100324.53;;;17.07;100.00
58473;BME280;44775;51.564;5.460;2023-07-28T05:31:07;100327.22;;;17.07;100.00
58473;BME280;44775;51.564;5.460;2023-07-28T05:33:33;100330.16;;;17.05;100.00
58473;BME280;44775;51.564;5.460;2023-07-28T05:36:04;100330.28;;;17.10;100.00
58473;BME280;44775;51.564;5.460;2023-07-28T05:38:29;100332.16;;;17.10;100.00
58473;BME280;44775;51.564;5.460;2023-07-28T05:41:02;100344.16;;;17.14;100.00
58473;BME280;44775;51.564;5.460;2023-07-28T05:43:29;100342.91;;;17.16;100.00
58473;BME280;44775;51.564;5.460;2023-07-28T05:45:54;100336.69;;;17.16;100.00
58473;BME280;44775;51.564;5.460;2023-07-28T05:48:20;100346.59;;;17.22;100.00
58473;BME280;44775;51.564;5.460;2023-07-28T05:50:45;100350.09;;;17.22;100.00
58473;BME280;44775;51.564;5.460;2023-07-28T05:53:11;100351.38;;;17.20;100.00
58473;BME280;44775;51.564;5.460;2023-07-28T05:55:36;100353.25;;;17.19;100.00
58473;BME280;44775;51.564;5.460;2023-07-28T05:58:01;100359.28;;;17.21;100.00
58473;BME280;44775;51.564;5.460;2023-07-28T06:00:27;100356.50;;;17.28;100.00
58473;BME280;44775;51.564;5.460;2023-07-28T06:02:53;100358.06;;;17.36;100.00
58473;BME280;44775;51.564;5.460;2023-07-28T06:05:18;100355.56;;;17.34;100.00
58473;BME280;44775;51.564;5.460;2023-07-28T06:07:44;100354.69;;;17.40;100.00
58473;BME280;44775;51.564;5.460;2023-07-28T06:10:09;100357.53;;;17.45;100.00
58473;BME280;44775;51.564;5.460;2023-07-28T06:12:34;100356.03;;;17.50;100.00
58473;BME280;44775;51.564;5.460;2023-07-28T06:15:01;100359.34;;;17.52;100.00
58473;BME280;44775;51.564;5.460;2023-07-28T06:17:27;100361.50;;;17.61;100.00
58473;BME280;44775;51.564;5.460;2023-07-28T06:19:53;100363.97;;;17.63;100.00
58473;BME280;44775;51.564;5.460;2023-07-28T06:22:19;100356.09;;;17.80;100.00
58473;BME280;44775;51.564;5.460;2023-07-28T06:24:44;100356.31;;;17.78;100.00
58473;BME280;44775;51.564;5.460;2023-07-28T06:27:09;100357.75;;;17.81;100.00
58473;BME280;44775;51.564;5.460;2023-07-28T06:29:35;100362.00;;;17.88;100.00
58473;BME280;44775;51.564;5.460;2023-07-28T06:32:01;100373.75;;;17.82;100.00
58473;BME280;44775;51.564;5.460;2023-07-28T06:34:26;100372.00;;;17.88;100.00
58473;BME280;44775;51.564;5.460;2023-07-28T06:36:52;100376.66;;;17.81;100.00
58473;BME280;44775;51.564;5.460;2023-07-28T06:39:17;100382.22;;;17.86;100.00
58473;BME280;44775;51.564;5.460;2023-07-28T06:41:42;100379.81;;;17.96;100.00
58473;BME280;44775;51.564;5.460;2023-07-28T06:44:08;100383.00;;;18.05;100.00
58473;BME280;44775;51.564;5.460;2023-07-28T06:46:34;100378.66;;;18.04;100.00
58473;BME280;44775;51.564;5.460;2023-07-28T06:48:59;100379.63;;;18.09;100.00
58473;BME280;44775;51.564;5.460;2023-07-28T06:51:25;100390.19;;;18.11;100.00
58473;BME280;44775;51.564;5.460;2023-07-28T06:53:51;100389.47;;;18.04;100.00
58473;BME280;44775;51.564;5.460;2023-07-28T06:56:16;100397.22;;;18.00;100.00
58473;BME280;44775;51.564;5.460;2023-07-28T06:58:41;100398.75;;;18.08;100.00
58473;BME280;44775;51.564;5.460;2023-07-28T07:01:07;100390.00;;;18.12;100.00
58473;BME280;44775;51.564;5.460;2023-07-28T07:03:38;100394.09;;;18.15;100.00
58473;BME280;44775;51.564;5.460;2023-07-28T07:06:03;100398.22;;;18.17;100.00
58473;BME280;44775;51.564;5.460;2023-07-28T07:08:29;100399.84;;;18.18;100.00
58473;BME280;44775;51.564;5.460;2023-07-28T07:10:54;100400.81;;;18.12;100.00
58473;BME280;44775;51.564;5.460;2023-07-28T07:13:20;100410.69;;;18.18;100.00
58473;BME280;44775;51.564;5.460;2023-07-28T07:15:46;100419.25;;;18.15;100.00
58473;BME280;44775;51.564;5.460;2023-07-28T07:18:11;100412.34;;;18.20;100.00
58473;BME280;44775;51.564;5.460;2023-07-28T07:20:37;100414.06;;;18.14;100.00
58473;BME280;44775;51.564;5.460;2023-07-28T07:23:04;100423.84;;;18.15;100.00
58473;BME280;44775;51.564;5.460;2023-07-28T07:25:29;100425.25;;;18.17;100.00
58473;BME280;44775;51.564;5.460;2023-07-28T07:27:55;100421.03;;;18.22;100.00
58473;BME280;44775;51.564;5.460;2023-07-28T07:30:21;100418.47;;;18.27;100.00
58473;BME280;44775;51.564;5.460;2023-07-28T07:32:46;100424.25;;;18.30;100.00
58473;BME280;44775;51.564;5.460;2023-07-28T07:35:11;100421.09;;;18.33;100.00
58473;BME280;44775;51.564;5.460;2023-07-28T07:37:38;100433.47;;;18.41;100.00
58473;BME280;44775;51.564;5.460;2023-07-28T07:40:04;100427.72;;;18.49;100.00
58473;BME280;44775;51.564;5.460;2023-07-28T07:42:42;100438.06;;;18.52;100.00
58473;BME280;44775;51.564;5.460;2023-07-28T07:45:09;100435.16;;;18.54;100.00
58473;BME280;44775;51.564;5.460;2023-07-28T07:47:35;100437.13;;;18.47;100.00
58473;BME280;44775;51.564;5.460;2023-07-28T07:50:00;100432.66;;;18.52;100.00
58473;BME280;44775;51.564;5.460;2023-07-28T07:52:25;100440.56;;;18.54;100.00
58473;BME280;44775;51.564;5.460;2023-07-28T07:54:51;100439.16;;;18.51;100.00
58473;BME280;44775;51.564;5.460;2023-07-28T07:57:16;100447.13;;;18.46;100.00
58473;BME280;44775;51.564;5.460;2023-07-28T07:59:42;100439.47;;;18.43;100.00
58473;BME280;44775;51.564;5.460;2023-07-28T08:02:08;100444.00;;;18.31;100.00
58473;BME280;44775;51.564;5.460;2023-07-28T08:04:35;100444.00;;;18.31;100.00
58473;BME280;44775;51.564;5.460;2023-07-28T08:07:01;100447.59;;;18.43;100.00
58473;BME280;44775;51.564;5.460;2023-07-28T08:09:29;100448.88;;;18.40;100.00
58473;BME280;44775;51.564;5.460;2023-07-28T08:11:55;100450.22;;;18.50;100.00
58473;BME280;44775;51.564;5.460;2023-07-28T08:14:20;100460.31;;;18.54;100.00
58473;BME280;44775;51.564;5.460;2023-07-28T08:16:45;100455.25;;;18.46;100.00
58473;BME280;44775;51.564;5.460;2023-07-28T08:19:11;100453.00;;;18.43;100.00
58473;BME280;44775;51.564;5.460;2023-07-28T08:21:36;100447.44;;;18.38;100.00
58473;BME280;44775;51.564;5.460;2023-07-28T08:24:03;100453.84;;;18.44;100.00
58473;BME280;44775;51.564;5.460;2023-07-28T08:26:29;100451.84;;;18.51;100.00
58473;BME280;44775;51.564;5.460;2023-07-28T08:28:54;100457.16;;;18.57;100.00
58473;BME280;44775;51.564;5.460;2023-07-28T08:31:20;100453.19;;;18.60;100.00
58473;BME280;44775;51.564;5.460;2023-07-28T08:33:46;100461.34;;;18.72;100.00
58473;BME280;44775;51.564;5.460;2023-07-28T08:36:11;100469.72;;;18.82;100.00
58473;BME280;44775;51.564;5.460;2023-07-28T08:38:36;100469.25;;;18.85;100.00
58473;BME280;44775;51.564;5.460;2023-07-28T08:41:01;100469.31;;;19.08;100.00
58473;BME280;44775;51.564;5.460;2023-07-28T08:43:27;100466.34;;;19.10;100.00
58473;BME280;44775;51.564;5.460;2023-07-28T08:45:54;100473.31;;;19.18;100.00
58473;BME280;44775;51.564;5.460;2023-07-28T08:48:20;100468.03;;;19.34;100.00
58473;BME280;44775;51.564;5.460;2023-07-28T08:50:46;100476.03;;;19.29;100.00
58473;BME280;44775;51.564;5.460;2023-07-28T08:53:11;100465.44;;;19.28;100.00
58473;BME280;44775;51.564;5.460;2023-07-28T08:55:37;100476.59;;;19.43;100.00
58473;BME280;44775;51.564;5.460;2023-07-28T08:58:16;100482.88;;;19.67;100.00
58473;BME280;44775;51.564;5.460;2023-07-28T09:00:41;100487.44;;;19.90;100.00
58473;BME280;44775;51.564;5.460;2023-07-28T09:03:09;100490.97;;;20.02;100.00
58473;BME280;44775;51.564;5.460;2023-07-28T09:05:35;100495.00;;;20.28;100.00
58473;BME280;44775;51.564;5.460;2023-07-28T09:08:01;100487.91;;;20.27;100.00
58473;BME280;44775;51.564;5.460;2023-07-28T09:10:40;100485.72;;;20.53;100.00
58473;BME280;44775;51.564;5.460;2023-07-28T09:13:09;100488.31;;;20.48;100.00
58473;BME280;44775;51.564;5.460;2023-07-28T09:15:35;100482.47;;;20.39;100.00
58473;BME280;44775;51.564;5.460;2023-07-28T09:18:01;100491.75;;;20.43;100.00
58473;BME280;44775;51.564;5.460;2023-07-28T09:20:34;100491.97;;;20.54;100.00
58473;BME280;44775;51.564;5.460;2023-07-28T09:23:00;100494.56;;;20.48;100.00
58473;BME280;44775;51.564;5.460;2023-07-28T09:25:28;100498.03;;;20.72;100.00
58473;BME280;44775;51.564;5.460;2023-07-28T09:27:55;100503.88;;;20.81;100.00
58473;BME280;44775;51.564;5.460;2023-07-28T09:30:21;100496.41;;;20.88;100.00
58473;BME280;44775;51.564;5.460;2023-07-28T09:32:52;100496.00;;;21.30;100.00
58473;BME280;44775;51.564;5.460;2023-07-28T09:35:19;100495.50;;;21.67;100.00
58473;BME280;44775;51.564;5.460;2023-07-28T09:37:47;100500.22;;;21.77;100.00
58473;BME280;44775;51.564;5.460;2023-07-28T09:40:18;100494.56;;;21.78;100.00
58473;BME280;44775;51.564;5.460;2023-07-28T09:42:46;100494.81;;;21.99;100.00
58473;BME280;44775;51.564;5.460;2023-07-28T09:45:16;100484.91;;;22.31;100.00
58473;BME280;44775;51.564;5.460;2023-07-28T09:47:44;100508.66;;;22.63;100.00
58473;BME280;44775;51.564;5.460;2023-07-28T09:50:10;100499.06;;;23.15;100.00
58473;BME280;44775;51.564;5.460;2023-07-28T09:52:42;100494.25;;;23.27;100.00
58473;BME280;44775;51.564;5.460;2023-07-28T09:55:10;100500.66;;;23.10;100.00
58473;BME280;44775;51.564;5.460;2023-07-28T09:57:39;100499.44;;;23.28;100.00
58473;BME280;44775;51.564;5.460;2023-07-28T10:00:10;100500.44;;;23.17;100.00
58473;BME280;44775;51.564;5.460;2023-07-28T10:02:37;100504.56;;;23.62;100.00
58473;BME280;44775;51.564;5.460;2023-07-28T10:05:03;100512.50;;;24.11;100.00
58473;BME280;44775;51.564;5.460;2023-07-28T10:07:30;100500.28;;;24.24;98.66
58473;BME280;44775;51.564;5.460;2023-07-28T10:09:56;100501.72;;;24.42;100.00
58473;BME280;44775;51.564;5.460;2023-07-28T10:12:25;100504.66;;;24.30;100.00
58473;BME280;44775;51.564;5.460;2023-07-28T10:15:03;100503.00;;;24.29;100.00
58473;BME280;44775;51.564;5.460;2023-07-28T10:17:33;100514.19;;;24.17;98.86
58473;BME280;44775;51.564;5.460;2023-07-28T10:20:02;100511.47;;;24.33;94.78
58473;BME280;44775;51.564;5.460;2023-07-28T10:22:32;100513.03;;;24.08;95.23
58473;BME280;44775;51.564;5.460;2023-07-28T10:25:01;100508.41;;;24.09;98.86
58473;BME280;44775;51.564;5.460;2023-07-28T10:27:36;100511.50;;;24.38;99.22
58473;BME280;44775;51.564;5.460;2023-07-28T10:30:08;100515.34;;;24.37;93.11
58473;BME280;44775;51.564;5.460;2023-07-28T10:32:42;100512.84;;;24.30;94.84
58473;BME280;44775;51.564;5.460;2023-07-28T10:37:35;100510.50;;;24.54;90.70
58473;BME280;44775;51.564;5.460;2023-07-28T10:40:32;100514.84;;;24.50;93.89
58473;BME280;44775;51.564;5.460;2023-07-28T10:43:01;100509.00;;;24.26;91.32
58473;BME280;44775;51.564;5.460;2023-07-28T10:45:31;100515.13;;;24.48;95.05
58473;BME280;44775;51.564;5.460;2023-07-28T10:47:58;100511.03;;;24.51;95.44
58473;BME280;44775;51.564;5.460;2023-07-28T10:50:29;100520.66;;;24.74;90.53
58473;BME280;44775;51.564;5.460;2023-07-28T10:52:55;100510.78;;;24.68;89.97
58473;BME280;44775;51.564;5.460;2023-07-28T10:55:23;100515.97;;;24.59;88.32
58473;BME280;44775;51.564;5.460;2023-07-28T10:57:50;100514.09;;;24.85;87.89
58473;BME280;44775;51.564;5.460;2023-07-28T11:00:19;100513.81;;;25.53;87.15
58473;BME280;44775;51.564;5.460;2023-07-28T11:02:49;100516.78;;;25.93;87.09
58473;BME280;44775;51.564;5.460;2023-07-28T11:05:22;100507.75;;;25.77;84.25
58473;BME280;44775;51.564;5.460;2023-07-28T11:07:48;100509.00;;;26.15;77.17
58473;BME280;44775;51.564;5.460;2023-07-28T11:10:14;100504.69;;;26.58;74.71
58473;BME280;44775;51.564;5.460;2023-07-28T11:12:44;100510.78;;;26.90;76.10
58473;BME280;44775;51.564;5.460;2023-07-28T11:15:10;100505.38;;;26.79;73.54
58473;BME280;44775;51.564;5.460;2023-07-28T11:17:39;100511.16;;;27.17;73.39
58473;BME280;44775;51.564;5.460;2023-07-28T11:20:26;100507.38;;;27.66;71.41
58473;BME280;44775;51.564;5.460;2023-07-28T11:22:53;100520.84;;;28.16;70.37
58473;BME280;44775;51.564;5.460;2023-07-28T11:25:19;100512.59;;;27.39;67.38
58473;BME280;44775;51.564;5.460;2023-07-28T11:27:46;100509.53;;;27.11;66.70
58473;BME280;44775;51.564;5.460;2023-07-28T11:30:12;100502.94;;;26.78;72.44
58473;BME280;44775;51.564;5.460;2023-07-28T11:32:38;100507.38;;;26.69;67.91
58473;BME280;44775;51.564;5.460;2023-07-28T11:35:04;100504.28;;;27.49;70.02
58473;BME280;44775;51.564;5.460;2023-07-28T11:37:31;100503.25;;;27.69;68.30
58473;BME280;44775;51.564;5.460;2023-07-28T11:39:59;100508.59;;;28.08;64.03
58473;BME280;44775;51.564;5.460;2023-07-28T11:42:26;100511.69;;;28.01;66.85
58473;BME280;44775;51.564;5.460;2023-07-28T11:44:52;100508.88;;;28.07;64.85
58473;BME280;44775;51.564;5.460;2023-07-28T11:47:17;100510.34;;;28.18;64.56
58473;BME280;44775;51.564;5.460;2023-07-28T11:49:49;100509.56;;;27.93;63.34
58473;BME280;44775;51.564;5.460;2023-07-28T11:52:16;100511.09;;;27.81;66.22
58473;BME280;44775;51.564;5.460;2023-07-28T11:54:41;100499.66;;;27.44;63.89
58473;BME280;44775;51.564;5.460;2023-07-28T11:57:08;100507.16;;;26.99;71.39
58473;BME280;44775;51.564;5.460;2023-07-28T11:59:34;100502.44;;;26.66;68.85
58473;BME280;44775;51.564;5.460;2023-07-28T12:02:04;100502.19;;;26.67;68.74
58473;BME280;44775;51.564;5.460;2023-07-28T12:04:32;100500.19;;;26.78;73.17
58473;BME280;44775;51.564;5.460;2023-07-28T12:07:08;100513.41;;;26.71;70.07
58473;BME280;44775;51.564;5.460;2023-07-28T12:12:19;100511.00;;;26.59;71.55
58473;BME280;44775;51.564;5.460;2023-07-28T12:14:45;100504.50;;;26.50;72.27
58473;BME280;44775;51.564;5.460;2023-07-28T12:17:16;100510.16;;;26.09;71.53
58473;BME280;44775;51.564;5.460;2023-07-28T12:20:03;100504.13;;;26.02;73.31
58473;BME280;44775;51.564;5.460;2023-07-28T12:22:40;100504.50;;;25.70;72.91
58473;BME280;44775;51.564;5.460;2023-07-28T12:25:06;100511.59;;;25.76;73.36
58473;BME280;44775;51.564;5.460;2023-07-28T12:27:32;100510.00;;;25.49;76.09
58473;BME280;44775;51.564;5.460;2023-07-28T12:29:57;100516.59;;;25.17;77.27
58473;BME280;44775;51.564;5.460;2023-07-28T12:32:23;100519.53;;;24.80;79.58
58473;BME280;44775;51.564;5.460;2023-07-28T12:34:49;100517.63;;;24.70;81.39
58473;BME280;44775;51.564;5.460;2023-07-28T12:37:15;100513.69;;;24.36;84.79
58473;BME280;44775;51.564;5.460;2023-07-28T12:39:40;100514.72;;;24.19;84.71
58473;BME280;44775;51.564;5.460;2023-07-28T12:42:09;100517.88;;;23.91;86.00
58473;BME280;44775;51.564;5.460;2023-07-28T12:44:36;100513.88;;;23.66;88.39
58473;BME280;44775;51.564;5.460;2023-07-28T12:47:02;100519.31;;;23.61;92.25
58473;BME280;44775;51.564;5.460;2023-07-28T12:49:28;100517.44;;;23.67;90.61
58473;BME280;44775;51.564;5.460;2023-07-28T12:51:55;100524.84;;;23.71;89.03